sensor_id;sensor_type;location;lat;lon;timestamp;P1;durP1;ratioP1;P2;durP2;ratioP2
34541;SDS011;20784;51.332;12.410;2023-06-10T00:00:24;9.73;;;4.38;;
34541;SDS011;20784;51.332;12.410;2023-06-10T00:02:53;8.07;;;4.50;;
34541;SDS011;20784;51.332;12.410;2023-06-10T00:05:21;12.15;;;5.07;;
34541;SDS011;20784;51.332;12.410;2023-06-10T00:07:58;11.02;;;4.15;;
34541;SDS011;20784;51.332;12.410;2023-06-10T00:10:24;10.27;;;4.28;;
34541;SDS011;20784;51.332;12.410;2023-06-10T00:13:02;14.35;;;3.80;;
34541;SDS011;20784;51.332;12.410;2023-06-10T00:15:34;9.80;;;4.35;;
34541;SDS011;20784;51.332;12.410;2023-06-10T00:18:03;9.32;;;4.53;;
34541;SDS011;20784;51.332;12.410;2023-06-10T00:20:29;10.55;;;4.25;;
34541;SDS011;20784;51.332;12.410;2023-06-10T00:22:56;11.23;;;4.47;;
34541;SDS011;20784;51.332;12.410;2023-06-10T00:25:24;14.15;;;3.97;;
34541;SDS011;20784;51.332;12.410;2023-06-10T00:27:56;9.45;;;3.97;;
34541;SDS011;20784;51.332;12.410;2023-06-10T00:30:21;9.85;;;4.35;;
34541;SDS011;20784;51.332;12.410;2023-06-10T00:32:47;7.68;;;4.20;;
34541;SDS011;20784;51.332;12.410;2023-06-10T00:35:13;10.60;;;4.50;;
34541;SDS011;20784;51.332;12.410;2023-06-10T00:37:41;8.75;;;3.90;;
34541;SDS011;20784;51.332;12.410;2023-06-10T00:40:12;6.43;;;4.10;;
34541;SDS011;20784;51.332;12.410;2023-06-10T00:42:43;6.03;;;3.92;;
34541;SDS011;20784;51.332;12.410;2023-06-10T00:45:09;10.00;;;4.43;;
34541;SDS011;20784;51.332;12.410;2023-06-10T00:47:35;10.93;;;4.25;;
34541;SDS011;20784;51.332;12.410;2023-06-10T00:50:01;10.98;;;4.57;;
34541;SDS011;20784;51.332;12.410;2023-06-10T00:52:30;8.38;;;4.07;;
34541;SDS011;20784;51.332;12.410;2023-06-10T00:54:59;9.30;;;4.68;;
34541;SDS011;20784;51.332;12.410;2023-06-10T00:57:27;9.63;;;5.07;;
34541;SDS011;20784;51.332;12.410;2023-06-10T01:00:00;10.85;;;4.30;;
34541;SDS011;20784;51.332;12.410;2023-06-10T01:02:26;7.97;;;3.95;;
34541;SDS011;20784;51.332;12.410;2023-06-10T01:04:52;12.80;;;4.20;;
34541;SDS011;20784;51.332;12.410;2023-06-10T01:07:33;7.90;;;4.57;;
34541;SDS011;20784;51.332;12.410;2023-06-10T01:10:29;8.98;;;4.28;;
34541;SDS011;20784;51.332;12.410;2023-06-10T01:13:03;8.35;;;4.25;;
34541;SDS011;20784;51.332;12.410;2023-06-10T01:15:32;7.75;;;3.92;;
34541;SDS011;20784;51.332;12.410;2023-06-10T01:18:10;8.48;;;4.30;;
34541;SDS011;20784;51.332;12.410;2023-06-10T01:20:40;6.57;;;4.30;;
34541;SDS011;20784;51.332;12.410;2023-06-10T01:23:14;8.57;;;4.57;;
34541;SDS011;20784;51.332;12.410;2023-06-10T01:25:47;9.65;;;4.10;;
34541;SDS011;20784;51.332;12.410;2023-06-10T01:31:13;9.82;;;4.50;;
34541;SDS011;20784;51.332;12.410;2023-06-10T01:34:01;9.80;;;4.30;;
34541;SDS011;20784;51.332;12.410;2023-06-10T01:36:34;8.00;;;4.32;;
34541;SDS011;20784;51.332;12.410;2023-06-10T01:39:23;8.82;;;4.15;;
34541;SDS011;20784;51.332;12.410;2023-06-10T01:41:52;8.65;;;4.32;;
34541;SDS011;20784;51.332;12.410;2023-06-10T01:44:23;13.57;;;4.63;;
34541;SDS011;20784;51.332;12.410;2023-06-10T01:46:49;10.02;;;4.78;;
34541;SDS011;20784;51.332;12.410;2023-06-10T01:49:15;8.02;;;4.40;;
34541;SDS011;20784;51.332;12.410;2023-06-10T01:51:54;17.95;;;5.40;;
34541;SDS011;20784;51.332;12.410;2023-06-10T01:54:23;7.88;;;4.75;;
34541;SDS011;20784;51.332;12.410;2023-06-10T01:56:51;8.98;;;5.03;;
34541;SDS011;20784;51.332;12.410;2023-06-10T01:59:23;11.18;;;5.47;;
34541;SDS011;20784;51.332;12.410;2023-06-10T02:01:48;14.02;;;5.55;;
34541;SDS011;20784;51.332;12.410;2023-06-10T02:04:14;12.75;;;5.55;;
34541;SDS011;20784;51.332;12.410;2023-06-10T02:06:53;10.73;;;5.25;;
34541;SDS011;20784;51.332;12.410;2023-06-10T02:09:24;9.70;;;5.70;;
34541;SDS011;20784;51.332;12.410;2023-06-10T02:11:56;12.13;;;5.00;;
34541;SDS011;20784;51.332;12.410;2023-06-10T02:14:24;11.85;;;6.13;;
34541;SDS011;20784;51.332;12.410;2023-06-10T02:16:50;15.60;;;6.28;;
34541;SDS011;20784;51.332;12.410;2023-06-10T02:19:16;13.80;;;6.10;;
34541;SDS011;20784;51.332;12.410;2023-06-10T02:21:45;11.98;;;6.10;;
34541;SDS011;20784;51.332;12.410;2023-06-10T02:24:10;13.95;;;6.38;;
34541;SDS011;20784;51.332;12.410;2023-06-10T02:26:38;14.93;;;6.80;;
34541;SDS011;20784;51.332;12.410;2023-06-10T02:29:09;11.57;;;6.65;;
34541;SDS011;20784;51.332;12.410;2023-06-10T02:31:58;12.88;;;6.55;;
34541;SDS011;20784;51.332;12.410;2023-06-10T02:34:26;12.23;;;6.28;;
34541;SDS011;20784;51.332;12.410;2023-06-10T02:36:54;11.02;;;6.53;;
34541;SDS011;20784;51.332;12.410;2023-06-10T02:39:21;12.27;;;6.53;;
34541;SDS011;20784;51.332;12.410;2023-06-10T02:44:23;13.23;;;6.30;;
34541;SDS011;20784;51.332;12.410;2023-06-10T02:46:49;12.43;;;6.32;;
34541;SDS011;20784;51.332;12.410;2023-06-10T02:49:17;13.77;;;6.03;;
34541;SDS011;20784;51.332;12.410;2023-06-10T02:51:43;12.43;;;6.93;;
34541;SDS011;20784;51.332;12.410;2023-06-10T02:54:11;11.30;;;6.47;;
34541;SDS011;20784;51.332;12.410;2023-06-10T02:56:44;12.40;;;6.13;;
34541;SDS011;20784;51.332;12.410;2023-06-10T02:59:10;14.30;;;6.75;;
34541;SDS011;20784;51.332;12.410;2023-06-10T03:01:42;10.32;;;6.18;;
34541;SDS011;20784;51.332;12.410;2023-06-10T03:04:15;16.92;;;6.32;;
34541;SDS011;20784;51.332;12.410;2023-06-10T03:06:40;13.02;;;6.10;;
34541;SDS011;20784;51.332;12.410;2023-06-10T03:09:06;14.80;;;5.70;;
34541;SDS011;20784;51.332;12.410;2023-06-10T03:11:35;14.13;;;6.90;;
34541;SDS011;20784;51.332;12.410;2023-06-10T03:14:00;10.30;;;5.55;;
34541;SDS011;20784;51.332;12.410;2023-06-10T03:16:26;16.30;;;6.22;;
34541;SDS011;20784;51.332;12.410;2023-06-10T03:18:52;11.30;;;5.68;;
34541;SDS011;20784;51.332;12.410;2023-06-10T03:21:20;12.80;;;5.82;;
34541;SDS011;20784;51.332;12.410;2023-06-10T03:23:46;10.13;;;5.43;;
34541;SDS011;20784;51.332;12.410;2023-06-10T03:26:12;13.55;;;5.60;;
34541;SDS011;20784;51.332;12.410;2023-06-10T03:28:40;7.03;;;4.88;;
34541;SDS011;20784;51.332;12.410;2023-06-10T03:31:06;13.57;;;6.10;;
34541;SDS011;20784;51.332;12.410;2023-06-10T03:33:37;11.80;;;5.72;;
34541;SDS011;20784;51.332;12.410;2023-06-10T03:36:04;12.98;;;6.25;;
34541;SDS011;20784;51.332;12.410;2023-06-10T03:38:30;11.95;;;5.40;;
34541;SDS011;20784;51.332;12.410;2023-06-10T03:40:55;12.93;;;5.75;;
34541;SDS011;20784;51.332;12.410;2023-06-10T03:43:21;12.60;;;5.68;;
34541;SDS011;20784;51.332;12.410;2023-06-10T03:45:47;11.05;;;5.68;;
34541;SDS011;20784;51.332;12.410;2023-06-10T03:48:14;15.23;;;5.90;;
34541;SDS011;20784;51.332;12.410;2023-06-10T03:50:40;11.68;;;5.07;;
34541;SDS011;20784;51.332;12.410;2023-06-10T03:53:05;10.48;;;5.28;;
34541;SDS011;20784;51.332;12.410;2023-06-10T03:55:37;13.00;;;6.07;;
34541;SDS011;20784;51.332;12.410;2023-06-10T04:00:28;13.43;;;5.72;;
34541;SDS011;20784;51.332;12.410;2023-06-10T04:02:55;10.25;;;5.03;;
34541;SDS011;20784;51.332;12.410;2023-06-10T04:05:23;12.80;;;5.90;;
34541;SDS011;20784;51.332;12.410;2023-06-10T04:07:49;10.85;;;5.28;;
34541;SDS011;20784;51.332;12.410;2023-06-10T04:10:17;14.35;;;5.97;;
34541;SDS011;20784;51.332;12.410;2023-06-10T04:12:43;10.93;;;5.90;;
34541;SDS011;20784;51.332;12.410;2023-06-10T04:17:50;13.13;;;5.68;;
34541;SDS011;20784;51.332;12.410;2023-06-10T04:20:16;12.73;;;5.55;;
34541;SDS011;20784;51.332;12.410;2023-06-10T04:22:44;16.52;;;5.85;;
34541;SDS011;20784;51.332;12.410;2023-06-10T04:25:10;10.57;;;6.03;;
34541;SDS011;20784;51.332;12.410;2023-06-10T04:27:47;9.75;;;5.32;;
34541;SDS011;20784;51.332;12.410;2023-06-10T04:30:16;11.75;;;6.05;;
34541;SDS011;20784;51.332;12.410;2023-06-10T04:35:16;11.18;;;5.88;;
34541;SDS011;20784;51.332;12.410;2023-06-10T04:37:44;10.65;;;6.18;;
34541;SDS011;20784;51.332;12.410;2023-06-10T04:40:10;13.73;;;6.22;;
34541;SDS011;20784;51.332;12.410;2023-06-10T04:42:36;13.52;;;6.05;;
34541;SDS011;20784;51.332;12.410;2023-06-10T04:45:02;15.73;;;6.13;;
34541;SDS011;20784;51.332;12.410;2023-06-10T04:47:31;12.25;;;6.00;;
34541;SDS011;20784;51.332;12.410;2023-06-10T04:50:00;11.68;;;6.10;;
34541;SDS011;20784;51.332;12.410;2023-06-10T04:52:32;14.00;;;5.95;;
34541;SDS011;20784;51.332;12.410;2023-06-10T04:54:58;10.68;;;6.22;;
34541;SDS011;20784;51.332;12.410;2023-06-10T04:57:26;16.80;;;7.25;;
34541;SDS011;20784;51.332;12.410;2023-06-10T04:59:54;15.80;;;6.00;;
34541;SDS011;20784;51.332;12.410;2023-06-10T05:02:30;14.57;;;6.40;;
34541;SDS011;20784;51.332;12.410;2023-06-10T05:04:56;13.88;;;6.20;;
34541;SDS011;20784;51.332;12.410;2023-06-10T05:07:22;15.98;;;6.30;;
34541;SDS011;20784;51.332;12.410;2023-06-10T05:09:48;12.75;;;6.60;;
34541;SDS011;20784;51.332;12.410;2023-06-10T05:12:14;12.65;;;6.22;;
34541;SDS011;20784;51.332;12.410;2023-06-10T05:14:42;9.77;;;6.45;;
34541;SDS011;20784;51.332;12.410;2023-06-10T05:17:11;14.13;;;6.07;;
34541;SDS011;20784;51.332;12.410;2023-06-10T05:19:40;16.77;;;6.85;;
34541;SDS011;20784;51.332;12.410;2023-06-10T05:22:08;13.38;;;6.63;;
34541;SDS011;20784;51.332;12.410;2023-06-10T05:24:33;9.18;;;6.53;;
34541;SDS011;20784;51.332;12.410;2023-06-10T05:26:59;13.55;;;6.28;;
34541;SDS011;20784;51.332;12.410;2023-06-10T05:29:27;14.43;;;7.32;;
34541;SDS011;20784;51.332;12.410;2023-06-10T05:31:53;14.25;;;6.53;;
34541;SDS011;20784;51.332;12.410;2023-06-10T05:34:21;14.13;;;7.07;;
34541;SDS011;20784;51.332;12.410;2023-06-10T05:37:05;11.27;;;5.75;;
34541;SDS011;20784;51.332;12.410;2023-06-10T05:39:30;14.25;;;6.40;;
34541;SDS011;20784;51.332;12.410;2023-06-10T05:41:59;13.00;;;7.55;;
34541;SDS011;20784;51.332;12.410;2023-06-10T05:44:26;19.20;;;6.95;;
34541;SDS011;20784;51.332;12.410;2023-06-10T05:46:52;10.18;;;6.38;;
34541;SDS011;20784;51.332;12.410;2023-06-10T05:49:17;17.73;;;7.40;;
34541;SDS011;20784;51.332;12.410;2023-06-10T05:51:43;11.20;;;6.85;;
34541;SDS011;20784;51.332;12.410;2023-06-10T05:54:08;13.15;;;7.13;;
34541;SDS011;20784;51.332;12.410;2023-06-10T05:56:34;13.48;;;6.95;;
34541;SDS011;20784;51.332;12.410;2023-06-10T05:59:00;15.70;;;7.82;;
34541;SDS011;20784;51.332;12.410;2023-06-10T06:01:25;13.93;;;7.38;;
34541;SDS011;20784;51.332;12.410;2023-06-10T06:03:51;14.20;;;7.03;;
34541;SDS011;20784;51.332;12.410;2023-06-10T06:06:16;13.27;;;7.45;;
34541;SDS011;20784;51.332;12.410;2023-06-10T06:08:45;13.45;;;7.28;;
34541;SDS011;20784;51.332;12.410;2023-06-10T06:11:10;12.07;;;7.05;;
34541;SDS011;20784;51.332;12.410;2023-06-10T06:13:36;12.98;;;6.85;;
34541;SDS011;20784;51.332;12.410;2023-06-10T06:16:07;13.15;;;7.03;;
34541;SDS011;20784;51.332;12.410;2023-06-10T06:18:32;17.63;;;7.75;;
34541;SDS011;20784;51.332;12.410;2023-06-10T06:20:59;13.75;;;7.38;;
34541;SDS011;20784;51.332;12.410;2023-06-10T06:23:25;18.05;;;8.02;;
34541;SDS011;20784;51.332;12.410;2023-06-10T06:25:50;12.48;;;6.68;;
34541;SDS011;20784;51.332;12.410;2023-06-10T06:28:16;15.93;;;7.53;;
34541;SDS011;20784;51.332;12.410;2023-06-10T06:30:43;13.68;;;7.72;;
34541;SDS011;20784;51.332;12.410;2023-06-10T06:33:09;18.88;;;7.53;;
34541;SDS011;20784;51.332;12.410;2023-06-10T06:35:37;14.40;;;7.70;;
34541;SDS011;20784;51.332;12.410;2023-06-10T06:38:05;19.63;;;8.25;;
34541;SDS011;20784;51.332;12.410;2023-06-10T06:40:31;21.23;;;7.43;;
34541;SDS011;20784;51.332;12.410;2023-06-10T06:42:59;15.68;;;8.23;;
34541;SDS011;20784;51.332;12.410;2023-06-10T06:45:25;15.27;;;7.40;;
34541;SDS011;20784;51.332;12.410;2023-06-10T06:47:50;17.38;;;7.88;;
34541;SDS011;20784;51.332;12.410;2023-06-10T06:50:16;17.48;;;8.30;;
34541;SDS011;20784;51.332;12.410;2023-06-10T06:52:42;13.23;;;7.75;;
34541;SDS011;20784;51.332;12.410;2023-06-10T06:55:07;19.20;;;8.13;;
34541;SDS011;20784;51.332;12.410;2023-06-10T06:57:35;13.20;;;8.02;;
34541;SDS011;20784;51.332;12.410;2023-06-10T07:00:01;21.85;;;8.30;;
34541;SDS011;20784;51.332;12.410;2023-06-10T07:02:27;13.50;;;7.55;;
34541;SDS011;20784;51.332;12.410;2023-06-10T07:04:53;15.63;;;7.57;;
34541;SDS011;20784;51.332;12.410;2023-06-10T07:07:20;15.48;;;8.00;;
34541;SDS011;20784;51.332;12.410;2023-06-10T07:09:46;15.82;;;8.18;;
34541;SDS011;20784;51.332;12.410;2023-06-10T07:12:20;16.98;;;8.05;;
34541;SDS011;20784;51.332;12.410;2023-06-10T07:15:05;19.08;;;8.52;;
34541;SDS011;20784;51.332;12.410;2023-06-10T07:17:36;12.20;;;8.45;;
34541;SDS011;20784;51.332;12.410;2023-06-10T07:22:52;14.25;;;9.07;;
34541;SDS011;20784;51.332;12.410;2023-06-10T07:25:21;14.18;;;8.27;;
34541;SDS011;20784;51.332;12.410;2023-06-10T07:27:51;15.48;;;8.77;;
34541;SDS011;20784;51.332;12.410;2023-06-10T07:30:17;17.50;;;7.95;;
34541;SDS011;20784;51.332;12.410;2023-06-10T07:32:49;15.48;;;8.00;;
34541;SDS011;20784;51.332;12.410;2023-06-10T07:35:24;13.25;;;7.93;;
34541;SDS011;20784;51.332;12.410;2023-06-10T07:37:53;14.43;;;7.97;;
34541;SDS011;20784;51.332;12.410;2023-06-10T07:40:21;14.02;;;7.72;;
34541;SDS011;20784;51.332;12.410;2023-06-10T07:42:49;17.35;;;8.20;;
34541;SDS011;20784;51.332;12.410;2023-06-10T07:45:24;18.05;;;8.02;;
34541;SDS011;20784;51.332;12.410;2023-06-10T07:47:55;14.10;;;7.60;;
34541;SDS011;20784;51.332;12.410;2023-06-10T07:50:30;15.85;;;7.75;;
34541;SDS011;20784;51.332;12.410;2023-06-10T07:52:59;15.07;;;8.30;;
34541;SDS011;20784;51.332;12.410;2023-06-10T07:55:28;11.73;;;7.55;;
34541;SDS011;20784;51.332;12.410;2023-06-10T07:57:58;19.80;;;8.07;;
34541;SDS011;20784;51.332;12.410;2023-06-10T08:00:24;18.52;;;8.80;;
34541;SDS011;20784;51.332;12.410;2023-06-10T08:02:52;16.95;;;8.15;;
34541;SDS011;20784;51.332;12.410;2023-06-10T08:05:20;11.90;;;6.97;;
34541;SDS011;20784;51.332;12.410;2023-06-10T08:07:48;16.60;;;7.70;;
34541;SDS011;20784;51.332;12.410;2023-06-10T08:10:22;15.98;;;8.40;;
34541;SDS011;20784;51.332;12.410;2023-06-10T08:12:48;10.85;;;7.68;;
34541;SDS011;20784;51.332;12.410;2023-06-10T08:15:16;12.70;;;7.60;;
34541;SDS011;20784;51.332;12.410;2023-06-10T08:17:53;14.30;;;8.73;;
34541;SDS011;20784;51.332;12.410;2023-06-10T08:20:28;14.98;;;8.30;;
34541;SDS011;20784;51.332;12.410;2023-06-10T08:22:57;19.27;;;7.78;;
34541;SDS011;20784;51.332;12.410;2023-06-10T08:25:22;15.60;;;8.38;;
34541;SDS011;20784;51.332;12.410;2023-06-10T08:27:48;15.52;;;7.13;;
34541;SDS011;20784;51.332;12.410;2023-06-10T08:30:17;15.00;;;7.80;;
34541;SDS011;20784;51.332;12.410;2023-06-10T08:32:43;13.55;;;8.05;;
34541;SDS011;20784;51.332;12.410;2023-06-10T08:35:22;16.10;;;7.57;;
34541;SDS011;20784;51.332;12.410;2023-06-10T08:37:50;20.90;;;8.43;;
34541;SDS011;20784;51.332;12.410;2023-06-10T08:40:15;13.95;;;7.70;;
34541;SDS011;20784;51.332;12.410;2023-06-10T08:45:12;16.27;;;7.82;;
34541;SDS011;20784;51.332;12.410;2023-06-10T08:47:44;13.95;;;7.60;;
34541;SDS011;20784;51.332;12.410;2023-06-10T08:50:11;13.13;;;7.50;;
34541;SDS011;20784;51.332;12.410;2023-06-10T08:52:37;16.02;;;7.45;;
34541;SDS011;20784;51.332;12.410;2023-06-10T08:55:15;16.57;;;7.90;;
34541;SDS011;20784;51.332;12.410;2023-06-10T08:57:50;12.00;;;7.30;;
34541;SDS011;20784;51.332;12.410;2023-06-10T09:00:16;12.57;;;7.10;;
34541;SDS011;20784;51.332;12.410;2023-06-10T09:02:42;12.90;;;7.47;;
34541;SDS011;20784;51.332;12.410;2023-06-10T09:05:09;11.32;;;7.28;;
34541;SDS011;20784;51.332;12.410;2023-06-10T09:07:35;13.05;;;6.85;;
34541;SDS011;20784;51.332;12.410;2023-06-10T09:10:04;12.02;;;7.43;;
34541;SDS011;20784;51.332;12.410;2023-06-10T09:12:32;10.60;;;6.90;;
34541;SDS011;20784;51.332;12.410;2023-06-10T09:14:59;13.55;;;7.15;;
34541;SDS011;20784;51.332;12.410;2023-06-10T09:17:25;9.07;;;6.85;;
34541;SDS011;20784;51.332;12.410;2023-06-10T09:19:52;12.18;;;7.18;;
34541;SDS011;20784;51.332;12.410;2023-06-10T09:22:22;12.27;;;7.10;;
34541;SDS011;20784;51.332;12.410;2023-06-10T09:24:51;12.10;;;7.03;;
34541;SDS011;20784;51.332;12.410;2023-06-10T09:27:29;11.98;;;7.40;;
34541;SDS011;20784;51.332;12.410;2023-06-10T09:29:57;14.85;;;7.40;;
34541;SDS011;20784;51.332;12.410;2023-06-10T09:32:23;11.75;;;7.00;;
34541;SDS011;20784;51.332;12.410;2023-06-10T09:34:49;11.07;;;6.72;;
34541;SDS011;20784;51.332;12.410;2023-06-10T09:37:22;12.20;;;7.10;;
34541;SDS011;20784;51.332;12.410;2023-06-10T09:40:06;10.45;;;6.78;;
34541;SDS011;20784;51.332;12.410;2023-06-10T09:42:34;8.82;;;6.75;;
34541;SDS011;20784;51.332;12.410;2023-06-10T09:45:01;9.75;;;6.68;;
34541;SDS011;20784;51.332;12.410;2023-06-10T09:47:36;9.90;;;6.72;;
34541;SDS011;20784;51.332;12.410;2023-06-10T09:50:04;9.43;;;6.65;;
34541;SDS011;20784;51.332;12.410;2023-06-10T09:52:30;11.52;;;6.85;;
34541;SDS011;20784;51.332;12.410;2023-06-10T09:54:59;16.13;;;7.00;;
34541;SDS011;20784;51.332;12.410;2023-06-10T09:57:30;16.23;;;6.85;;
34541;SDS011;20784;51.332;12.410;2023-06-10T09:59:59;15.23;;;7.35;;
34541;SDS011;20784;51.332;12.410;2023-06-10T10:02:28;12.00;;;7.10;;
34541;SDS011;20784;51.332;12.410;2023-06-10T10:04:59;11.95;;;6.85;;
34541;SDS011;20784;51.332;12.410;2023-06-10T10:07:30;10.13;;;6.90;;
34541;SDS011;20784;51.332;12.410;2023-06-10T10:09:58;14.53;;;7.53;;
34541;SDS011;20784;51.332;12.410;2023-06-10T10:12:27;10.07;;;6.55;;
34541;SDS011;20784;51.332;12.410;2023-06-10T10:14:54;10.80;;;7.03;;
34541;SDS011;20784;51.332;12.410;2023-06-10T10:17:21;13.10;;;7.47;;
34541;SDS011;20784;51.332;12.410;2023-06-10T10:19:52;8.82;;;6.72;;
34541;SDS011;20784;51.332;12.410;2023-06-10T10:22:29;14.70;;;7.40;;
34541;SDS011;20784;51.332;12.410;2023-06-10T10:25:11;16.10;;;7.63;;
34541;SDS011;20784;51.332;12.410;2023-06-10T10:27:44;9.13;;;7.32;;
34541;SDS011;20784;51.332;12.410;2023-06-10T10:30:30;16.38;;;7.80;;
34541;SDS011;20784;51.332;12.410;2023-06-10T10:33:16;10.75;;;6.80;;
34541;SDS011;20784;51.332;12.410;2023-06-10T10:35:44;11.73;;;7.30;;
34541;SDS011;20784;51.332;12.410;2023-06-10T10:38:11;10.75;;;7.32;;
34541;SDS011;20784;51.332;12.410;2023-06-10T10:40:37;10.90;;;7.13;;
34541;SDS011;20784;51.332;12.410;2023-06-10T10:43:04;12.20;;;7.32;;
34541;SDS011;20784;51.332;12.410;2023-06-10T10:45:30;14.05;;;7.10;;
34541;SDS011;20784;51.332;12.410;2023-06-10T10:48:10;15.20;;;8.32;;
34541;SDS011;20784;51.332;12.410;2023-06-10T10:50:45;11.95;;;6.85;;
34541;SDS011;20784;51.332;12.410;2023-06-10T10:53:23;12.75;;;6.90;;
34541;SDS011;20784;51.332;12.410;2023-06-10T10:58:29;11.32;;;7.28;;
34541;SDS011;20784;51.332;12.410;2023-06-10T11:01:00;10.90;;;7.05;;
34541;SDS011;20784;51.332;12.410;2023-06-10T11:03:36;9.82;;;6.72;;
34541;SDS011;20784;51.332;12.410;2023-06-10T11:06:14;14.07;;;6.65;;
34541;SDS011;20784;51.332;12.410;2023-06-10T11:08:48;9.95;;;6.45;;
34541;SDS011;20784;51.332;12.410;2023-06-10T11:11:24;10.57;;;6.65;;
34541;SDS011;20784;51.332;12.410;2023-06-10T11:16:50;7.13;;;5.88;;
34541;SDS011;20784;51.332;12.410;2023-06-10T11:19:36;7.90;;;6.00;;
34541;SDS011;20784;51.332;12.410;2023-06-10T11:22:05;13.35;;;6.13;;
34541;SDS011;20784;51.332;12.410;2023-06-10T11:24:31;11.30;;;5.43;;
34541;SDS011;20784;51.332;12.410;2023-06-10T11:32:29;10.25;;;6.00;;
34541;SDS011;20784;51.332;12.410;2023-06-10T11:34:58;7.55;;;6.03;;
34541;SDS011;20784;51.332;12.410;2023-06-10T11:37:25;12.02;;;6.00;;
34541;SDS011;20784;51.332;12.410;2023-06-10T11:39:53;6.85;;;6.13;;
34541;SDS011;20784;51.332;12.410;2023-06-10T11:42:20;8.88;;;6.28;;
34541;SDS011;20784;51.332;12.410;2023-06-10T11:44:48;11.30;;;5.68;;
34541;SDS011;20784;51.332;12.410;2023-06-10T11:47:15;8.80;;;6.13;;
34541;SDS011;20784;51.332;12.410;2023-06-10T11:49:40;9.05;;;6.82;;
34541;SDS011;20784;51.332;12.410;2023-06-10T11:52:06;8.20;;;6.72;;
34541;SDS011;20784;51.332;12.410;2023-06-10T11:54:36;16.42;;;7.07;;
34541;SDS011;20784;51.332;12.410;2023-06-10T11:57:02;7.78;;;6.15;;
34541;SDS011;20784;51.332;12.410;2023-06-10T12:02:01;11.38;;;5.82;;
34541;SDS011;20784;51.332;12.410;2023-06-10T12:04:27;12.13;;;5.20;;
34541;SDS011;20784;51.332;12.410;2023-06-10T12:06:55;9.27;;;5.90;;
34541;SDS011;20784;51.332;12.410;2023-06-10T12:09:29;8.20;;;5.50;;
34541;SDS011;20784;51.332;12.410;2023-06-10T12:12:04;10.70;;;5.78;;
34541;SDS011;20784;51.332;12.410;2023-06-10T12:17:20;9.80;;;6.43;;
34541;SDS011;20784;51.332;12.410;2023-06-10T12:19:47;10.48;;;6.20;;
34541;SDS011;20784;51.332;12.410;2023-06-10T12:22:13;9.73;;;6.50;;
34541;SDS011;20784;51.332;12.410;2023-06-10T12:25:12;7.53;;;6.13;;
34541;SDS011;20784;51.332;12.410;2023-06-10T12:27:32;10.20;;;6.20;;
34541;SDS011;20784;51.332;12.410;2023-06-10T12:29:59;8.48;;;5.88;;
34541;SDS011;20784;51.332;12.410;2023-06-10T12:32:37;11.48;;;5.80;;
34541;SDS011;20784;51.332;12.410;2023-06-10T12:35:12;10.35;;;6.10;;
34541;SDS011;20784;51.332;12.410;2023-06-10T12:37:41;19.42;;;5.93;;
34541;SDS011;20784;51.332;12.410;2023-06-10T12:40:09;6.90;;;5.10;;
34541;SDS011;20784;51.332;12.410;2023-06-10T12:42:38;7.50;;;5.38;;
34541;SDS011;20784;51.332;12.410;2023-06-10T12:45:07;8.85;;;5.10;;
34541;SDS011;20784;51.332;12.410;2023-06-10T12:47:36;7.57;;;5.10;;
34541;SDS011;20784;51.332;12.410;2023-06-10T12:50:06;7.85;;;5.03;;
34541;SDS011;20784;51.332;12.410;2023-06-10T12:52:35;11.52;;;5.05;;
34541;SDS011;20784;51.332;12.410;2023-06-10T12:55:11;11.73;;;5.38;;
34541;SDS011;20784;51.332;12.410;2023-06-10T12:57:37;12.05;;;4.65;;
34541;SDS011;20784;51.332;12.410;2023-06-10T13:00:02;13.05;;;5.40;;
34541;SDS011;20784;51.332;12.410;2023-06-10T13:02:36;7.90;;;5.10;;
34541;SDS011;20784;51.332;12.410;2023-06-10T13:05:02;8.25;;;5.18;;
34541;SDS011;20784;51.332;12.410;2023-06-10T13:07:27;11.77;;;5.10;;
34541;SDS011;20784;51.332;12.410;2023-06-10T13:09:53;9.02;;;5.35;;
34541;SDS011;20784;51.332;12.410;2023-06-10T13:12:18;10.65;;;5.20;;
34541;SDS011;20784;51.332;12.410;2023-06-10T13:14:47;11.25;;;5.40;;
34541;SDS011;20784;51.332;12.410;2023-06-10T13:17:12;11.05;;;5.43;;
34541;SDS011;20784;51.332;12.410;2023-06-10T13:19:38;10.23;;;5.88;;
34541;SDS011;20784;51.332;12.410;2023-06-10T13:22:03;10.50;;;5.55;;
34541;SDS011;20784;51.332;12.410;2023-06-10T13:24:29;9.05;;;4.88;;
34541;SDS011;20784;51.332;12.410;2023-06-10T13:26:55;5.00;;;4.50;;
34541;SDS011;20784;51.332;12.410;2023-06-10T13:29:21;9.43;;;4.85;;
34541;SDS011;20784;51.332;12.410;2023-06-10T13:31:51;6.25;;;4.53;;
34541;SDS011;20784;51.332;12.410;2023-06-10T13:34:25;5.13;;;3.75;;
34541;SDS011;20784;51.332;12.410;2023-06-10T13:36:53;7.20;;;3.85;;
34541;SDS011;20784;51.332;12.410;2023-06-10T13:39:19;6.40;;;3.92;;
34541;SDS011;20784;51.332;12.410;2023-06-10T13:41:47;4.47;;;3.65;;
34541;SDS011;20784;51.332;12.410;2023-06-10T13:44:13;4.15;;;3.55;;
34541;SDS011;20784;51.332;12.410;2023-06-10T13:46:39;6.43;;;3.80;;
34541;SDS011;20784;51.332;12.410;2023-06-10T13:49:04;6.35;;;3.72;;
34541;SDS011;20784;51.332;12.410;2023-06-10T13:51:32;6.68;;;3.63;;
34541;SDS011;20784;51.332;12.410;2023-06-10T13:54:16;7.75;;;4.07;;
34541;SDS011;20784;51.332;12.410;2023-06-10T13:56:41;8.32;;;3.80;;
34541;SDS011;20784;51.332;12.410;2023-06-10T13:59:07;8.95;;;3.28;;
34541;SDS011;20784;51.332;12.410;2023-06-10T14:01:33;5.25;;;3.15;;
34541;SDS011;20784;51.332;12.410;2023-06-10T14:04:02;6.05;;;3.13;;
34541;SDS011;20784;51.332;12.410;2023-06-10T14:06:34;5.22;;;3.30;;
34541;SDS011;20784;51.332;12.410;2023-06-10T14:09:02;8.80;;;3.58;;
34541;SDS011;20784;51.332;12.410;2023-06-10T14:11:28;4.35;;;3.40;;
34541;SDS011;20784;51.332;12.410;2023-06-10T14:13:53;5.07;;;2.97;;
34541;SDS011;20784;51.332;12.410;2023-06-10T14:16:21;6.22;;;2.90;;
34541;SDS011;20784;51.332;12.410;2023-06-10T14:18:47;5.03;;;3.35;;
34541;SDS011;20784;51.332;12.410;2023-06-10T14:21:18;7.32;;;2.92;;
34541;SDS011;20784;51.332;12.410;2023-06-10T14:23:50;4.28;;;2.53;;
34541;SDS011;20784;51.332;12.410;2023-06-10T14:26:18;4.30;;;2.78;;
34541;SDS011;20784;51.332;12.410;2023-06-10T14:28:52;8.88;;;3.33;;
34541;SDS011;20784;51.332;12.410;2023-06-10T14:40:06;4.10;;;2.60;;
34541;SDS011;20784;51.332;12.410;2023-06-10T14:42:50;3.42;;;2.63;;
34541;SDS011;20784;51.332;12.410;2023-06-10T14:45:36;5.13;;;2.90;;
34541;SDS011;20784;51.332;12.410;2023-06-10T14:48:03;5.30;;;2.90;;
34541;SDS011;20784;51.332;12.410;2023-06-10T14:50:32;5.15;;;3.15;;
34541;SDS011;20784;51.332;12.410;2023-06-10T14:53:01;7.05;;;3.03;;
34541;SDS011;20784;51.332;12.410;2023-06-10T14:55:27;6.60;;;3.47;;
34541;SDS011;20784;51.332;12.410;2023-06-10T14:57:56;5.53;;;4.20;;
34541;SDS011;20784;51.332;12.410;2023-06-10T15:00:22;6.18;;;4.15;;
34541;SDS011;20784;51.332;12.410;2023-06-10T15:02:49;7.70;;;4.50;;
34541;SDS011;20784;51.332;12.410;2023-06-10T15:05:26;10.00;;;6.20;;
34541;SDS011;20784;51.332;12.410;2023-06-10T15:08:17;15.45;;;8.27;;
34541;SDS011;20784;51.332;12.410;2023-06-10T15:11:10;6.75;;;5.53;;
34541;SDS011;20784;51.332;12.410;2023-06-10T15:13:53;9.23;;;6.03;;
34541;SDS011;20784;51.332;12.410;2023-06-10T15:16:23;8.25;;;5.70;;
34541;SDS011;20784;51.332;12.410;2023-06-10T15:19:14;11.27;;;7.68;;
34541;SDS011;20784;51.332;12.410;2023-06-10T15:22:08;11.20;;;7.97;;